sensor_id;sensor_type;location;lat;lon;timestamp;pressure;altitude;pressure_sealevel;temperature;humidity
53889;BME280;41337;51.400;-2.342;2023-09-18T00:09:21;99953.88;;;17.06;100.00
53889;BME280;41337;51.400;-2.342;2023-09-18T00:14:28;99946.50;;;17.08;100.00
53889;BME280;41337;51.400;-2.342;2023-09-18T00:19:52;99928.91;;;17.07;100.00
53889;BME280;41337;51.400;-2.342;2023-09-18T00:30:05;99924.06;;;17.04;100.00
53889;BME280;41337;51.400;-2.342;2023-09-18T00:40:19;99912.75;;;16.97;100.00
53889;BME280;41337;51.400;-2.342;2023-09-18T00:50:26;99914.81;;;16.95;100.00
53889;BME280;41337;51.400;-2.342;2023-09-18T01:01:44;99920.00;;;17.02;100.00
53889;BME280;41337;51.400;-2.342;2023-09-18T01:12:27;99922.31;;;16.98;100.00
53889;BME280;41337;51.400;-2.342;2023-09-18T01:28:23;99932.03;;;16.93;100.00
53889;BME280;41337;51.400;-2.342;2023-09-18T01:39:11;99924.16;;;16.98;100.00
53889;BME280;41337;51.400;-2.342;2023-09-18T02:00:41;99909.16;;;16.92;100.00
53889;BME280;41337;51.400;-2.342;2023-09-18T02:27:42;99885.81;;;16.82;100.00
53889;BME280;41337;51.400;-2.342;2023-09-18T02:33:16;99879.53;;;16.76;100.00
53889;BME280;41337;51.400;-2.342;2023-09-18T02:44:37;99865.09;;;16.72;100.00
53889;BME280;41337;51.400;-2.342;2023-09-18T02:55:02;99850.44;;;16.58;100.00
53889;BME280;41337;51.400;-2.342;2023-09-18T03:05:59;99841.34;;;16.36;100.00
53889;BME280;41337;51.400;-2.342;2023-09-18T03:17:17;99839.38;;;16.31;100.00
53889;BME280;41337;51.400;-2.342;2023-09-18T03:22:25;99826.41;;;16.12;100.00
53889;BME280;41337;51.400;-2.342;2023-09-18T03:27:27;99822.34;;;16.09;100.00
53889;BME280;41337;51.400;-2.342;2023-09-18T03:54:14;99833.56;;;15.81;100.00
53889;BME280;41337;51.400;-2.342;2023-09-18T04:10:24;99815.56;;;15.53;100.00
53889;BME280;41337;51.400;-2.342;2023-09-18T04:21:39;99797.72;;;15.24;100.00
53889;BME280;41337;51.400;-2.342;2023-09-18T04:26:44;99795.88;;;15.06;100.00
53889;BME280;41337;51.400;-2.342;2023-09-18T04:37:02;99772.34;;;14.80;100.00
53889;BME280;41337;51.400;-2.342;2023-09-18T04:42:04;99765.28;;;14.74;100.00
53889;BME280;41337;51.400;-2.342;2023-09-18T04:47:05;99769.06;;;14.60;100.00
53889;BME280;41337;51.400;-2.342;2023-09-18T04:57:10;99760.47;;;14.46;100.00
53889;BME280;41337;51.400;-2.342;2023-09-18T05:02:21;99765.22;;;14.38;100.00
53889;BME280;41337;51.400;-2.342;2023-09-18T05:23:38;99748.00;;;13.97;100.00
53889;BME280;41337;51.400;-2.342;2023-09-18T05:28:50;99729.63;;;14.02;100.00
53889;BME280;41337;51.400;-2.342;2023-09-18T05:34:22;99729.16;;;13.87;100.00
53889;BME280;41337;51.400;-2.342;2023-09-18T05:44:43;99705.31;;;13.62;100.00
53889;BME280;41337;51.400;-2.342;2023-09-18T06:00:28;99705.78;;;13.53;100.00
53889;BME280;41337;51.400;-2.342;2023-09-18T06:10:39;99712.59;;;13.36;100.00
53889;BME280;41337;51.400;-2.342;2023-09-18T06:15:44;99710.59;;;13.24;100.00
53889;BME280;41337;51.400;-2.342;2023-09-18T06:21:11;99714.09;;;13.18;100.00
53889;BME280;41337;51.400;-2.342;2023-09-18T06:42:46;99700.84;;;13.25;100.00
53889;BME280;41337;51.400;-2.342;2023-09-18T07:04:38;99693.22;;;13.48;100.00
53889;BME280;41337;51.400;-2.342;2023-09-18T07:09:59;99684.84;;;13.83;100.00
53889;BME280;41337;51.400;-2.342;2023-09-18T07:15:33;99680.06;;;14.16;100.00
53889;BME280;41337;51.400;-2.342;2023-09-18T07:31:43;99663.16;;;14.96;100.00
53889;BME280;41337;51.400;-2.342;2023-09-18T07:37:25;99656.09;;;15.20;100.00
53889;BME280;41337;51.400;-2.342;2023-09-18T07:42:29;99651.28;;;15.29;100.00
53889;BME280;41337;51.400;-2.342;2023-09-18T07:47:33;99657.09;;;15.49;100.00
53889;BME280;41337;51.400;-2.342;2023-09-18T07:53:08;99645.97;;;15.59;100.00
53889;BME280;41337;51.400;-2.342;2023-09-18T07:58:43;99635.16;;;15.72;100.00
53889;BME280;41337;51.400;-2.342;2023-09-18T08:04:10;99639.53;;;15.66;100.00
53889;BME280;41337;51.400;-2.342;2023-09-18T08:33:35;99619.84;;;15.85;100.00
53889;BME280;41337;51.400;-2.342;2023-09-18T08:38:38;99609.91;;;15.81;100.00
53889;BME280;41337;51.400;-2.342;2023-09-18T08:44:08;99617.66;;;15.94;100.00
53889;BME280;41337;51.400;-2.342;2023-09-18T08:49:45;99614.31;;;15.98;100.00
53889;BME280;41337;51.400;-2.342;2023-09-18T08:55:15;99617.09;;;16.04;100.00
53889;BME280;41337;51.400;-2.342;2023-09-18T09:11:58;99623.53;;;16.19;100.00
53889;BME280;41337;51.400;-2.342;2023-09-18T09:17:42;99617.06;;;16.15;100.00
53889;BME280;41337;51.400;-2.342;2023-09-18T09:28:39;99628.34;;;16.45;100.00
53889;BME280;41337;51.400;-2.342;2023-09-18T09:34:29;99628.56;;;16.67;100.00
53889;BME280;41337;51.400;-2.342;2023-09-18T09:40:45;99640.34;;;16.60;100.00
53889;BME280;41337;51.400;-2.342;2023-09-18T09:52:20;99647.28;;;17.01;100.00
53889;BME280;41337;51.400;-2.342;2023-09-18T09:57:43;99647.09;;;16.90;100.00
53889;BME280;41337;51.400;-2.342;2023-09-18T10:03:26;99648.28;;;17.11;100.00
53889;BME280;41337;51.400;-2.342;2023-09-18T10:09:10;99656.56;;;17.26;100.00
53889;BME280;41337;51.400;-2.342;2023-09-18T10:20:31;99667.78;;;17.73;100.00
53889;BME280;41337;51.400;-2.342;2023-09-18T10:25:59;99679.31;;;17.51;100.00
53889;BME280;41337;51.400;-2.342;2023-09-18T10:31:26;99679.00;;;17.47;100.00
53889;BME280;41337;51.400;-2.342;2023-09-18T10:36:41;99686.66;;;17.44;100.00
53889;BME280;41337;51.400;-2.342;2023-09-18T10:41:54;99687.75;;;17.59;100.00
53889;BME280;41337;51.400;-2.342;2023-09-18T10:47:00;99715.66;;;17.45;100.00
53889;BME280;41337;51.400;-2.342;2023-09-18T10:52:12;99708.72;;;17.44;100.00
53889;BME280;41337;51.400;-2.342;2023-09-18T10:57:14;99713.09;;;17.50;99.02
53889;BME280;41337;51.400;-2.342;2023-09-18T11:02:20;99735.50;;;17.26;99.96
53889;BME280;41337;51.400;-2.342;2023-09-18T11:07:23;99768.59;;;17.07;100.00
53889;BME280;41337;51.400;-2.342;2023-09-18T11:12:45;99773.13;;;17.06;100.00
53889;BME280;41337;51.400;-2.342;2023-09-18T11:17:58;99782.75;;;16.96;100.00
53889;BME280;41337;51.400;-2.342;2023-09-18T11:23:16;99801.72;;;16.76;100.00
53889;BME280;41337;51.400;-2.342;2023-09-18T11:28:25;99806.06;;;16.94;100.00
53889;BME280;41337;51.400;-2.342;2023-09-18T11:33:36;99818.16;;;17.24;98.57
53889;BME280;41337;51.400;-2.342;2023-09-18T11:38:55;99839.88;;;17.33;94.85
53889;BME280;41337;51.400;-2.342;2023-09-18T11:49:24;99853.03;;;17.63;92.04
53889;BME280;41337;51.400;-2.342;2023-09-18T11:54:32;99869.97;;;17.85;87.60
53889;BME280;41337;51.400;-2.342;2023-09-18T11:59:40;99875.94;;;18.20;83.35
53889;BME280;41337;51.400;-2.342;2023-09-18T12:04:50;99888.47;;;18.20;80.30
53889;BME280;41337;51.400;-2.342;2023-09-18T12:09:55;99922.13;;;18.54;75.36
53889;BME280;41337;51.400;-2.342;2023-09-18T12:14:58;99923.16;;;18.25;74.36
53889;BME280;41337;51.400;-2.342;2023-09-18T12:20:03;99927.56;;;18.93;67.80
53889;BME280;41337;51.400;-2.342;2023-09-18T12:25:20;99930.78;;;18.33;73.23
53889;BME280;41337;51.400;-2.342;2023-09-18T12:30:26;99947.50;;;18.57;67.05
53889;BME280;41337;51.400;-2.342;2023-09-18T12:35:50;99963.94;;;18.25;69.46
53889;BME280;41337;51.400;-2.342;2023-09-18T12:40:55;99951.97;;;18.11;69.24
53889;BME280;41337;51.400;-2.342;2023-09-18T12:45:56;99954.47;;;18.18;72.95
53889;BME280;41337;51.400;-2.342;2023-09-18T12:51:05;99963.41;;;18.40;68.08
53889;BME280;41337;51.400;-2.342;2023-09-18T12:56:11;99984.91;;;17.70;75.34
53889;BME280;41337;51.400;-2.342;2023-09-18T13:01:13;99985.59;;;17.77;76.40
53889;BME280;41337;51.400;-2.342;2023-09-18T13:06:18;99982.38;;;17.64;78.37
53889;BME280;41337;51.400;-2.342;2023-09-18T13:11:19;99984.78;;;17.89;77.60
53889;BME280;41337;51.400;-2.342;2023-09-18T13:16:23;99987.69;;;17.52;77.32
53889;BME280;41337;51.400;-2.342;2023-09-18T13:21:28;99994.34;;;18.01;73.85
53889;BME280;41337;51.400;-2.342;2023-09-18T13:26:31;99989.69;;;18.48;68.56
53889;BME280;41337;51.400;-2.342;2023-09-18T13:31:32;100000.63;;;18.35;69.39
53889;BME280;41337;51.400;-2.342;2023-09-18T13:36:33;100023.19;;;17.93;71.41
53889;BME280;41337;51.400;-2.342;2023-09-18T13:41:54;100007.94;;;17.76;69.97
53889;BME280;41337;51.400;-2.342;2023-09-18T13:46:55;100025.06;;;17.80;69.29
53889;BME280;41337;51.400;-2.342;2023-09-18T13:51:56;100028.38;;;18.11;69.29
53889;BME280;41337;51.400;-2.342;2023-09-18T13:56:57;100026.41;;;19.03;63.38
53889;BME280;41337;51.400;-2.342;2023-09-18T14:01:59;100033.72;;;18.39;68.50
53889;BME280;41337;51.400;-2.342;2023-09-18T14:07:00;100044.59;;;19.06;60.77
53889;BME280;41337;51.400;-2.342;2023-09-18T14:12:03;100060.94;;;18.53;64.03
53889;BME280;41337;51.400;-2.342;2023-09-18T14:17:09;100061.09;;;18.75;62.16
53889;BME280;41337;51.400;-2.342;2023-09-18T14:22:21;100069.28;;;19.30;57.61
53889;BME280;41337;51.400;-2.342;2023-09-18T14:27:25;100068.88;;;18.64;61.21
53889;BME280;41337;51.400;-2.342;2023-09-18T14:32:26;100062.84;;;19.14;58.43
53889;BME280;41337;51.400;-2.342;2023-09-18T14:37:27;100068.44;;;19.12;57.96
53889;BME280;41337;51.400;-2.342;2023-09-18T14:42:30;100085.63;;;19.83;51.78
53889;BME280;41337;51.400;-2.342;2023-09-18T14:47:31;100086.91;;;19.31;54.64
53889;BME280;41337;51.400;-2.342;2023-09-18T14:52:32;100103.50;;;19.66;50.73
53889;BME280;41337;51.400;-2.342;2023-09-18T14:57:33;100093.69;;;19.88;48.59
53889;BME280;41337;51.400;-2.342;2023-09-18T15:02:34;100099.16;;;19.43;51.73
53889;BME280;41337;51.400;-2.342;2023-09-18T15:07:35;100104.03;;;18.90;53.03
53889;BME280;41337;51.400;-2.342;2023-09-18T15:12:36;100119.53;;;19.21;51.05
53889;BME280;41337;51.400;-2.342;2023-09-18T15:17:37;100112.84;;;19.35;49.95
53889;BME280;41337;51.400;-2.342;2023-09-18T15:22:45;100105.50;;;18.97;50.68
53889;BME280;41337;51.400;-2.342;2023-09-18T15:27:45;100126.81;;;19.54;49.92
53889;BME280;41337;51.400;-2.342;2023-09-18T15:32:54;100134.16;;;19.18;51.72
53889;BME280;41337;51.400;-2.342;2023-09-18T15:37:56;100122.25;;;20.04;49.50
53889;BME280;41337;51.400;-2.342;2023-09-18T15:42:57;100113.81;;;19.29;52.97
53889;BME280;41337;51.400;-2.342;2023-09-18T15:48:07;100140.31;;;19.47;52.38
53889;BME280;41337;51.400;-2.342;2023-09-18T15:53:08;100136.91;;;19.24;50.93
53889;BME280;41337;51.400;-2.342;2023-09-18T15:58:09;100136.19;;;19.90;47.19
53889;BME280;41337;51.400;-2.342;2023-09-18T16:03:10;100153.53;;;19.14;52.17
53889;BME280;41337;51.400;-2.342;2023-09-18T16:08:11;100159.66;;;19.54;49.48
53889;BME280;41337;51.400;-2.342;2023-09-18T16:13:21;100179.13;;;18.98;52.70
53889;BME280;41337;51.400;-2.342;2023-09-18T16:23:52;100184.75;;;18.74;51.02
53889;BME280;41337;51.400;-2.342;2023-09-18T16:28:53;100200.31;;;18.65;52.87
53889;BME280;41337;51.400;-2.342;2023-09-18T16:33:56;100195.22;;;18.40;53.25
53889;BME280;41337;51.400;-2.342;2023-09-18T16:38:57;100213.78;;;18.58;52.10
53889;BME280;41337;51.400;-2.342;2023-09-18T16:43:58;100213.88;;;18.29;51.14
53889;BME280;41337;51.400;-2.342;2023-09-18T16:49:00;100219.16;;;17.94;52.79
53889;BME280;41337;51.400;-2.342;2023-09-18T16:54:27;100212.84;;;17.65;53.33
53889;BME280;41337;51.400;-2.342;2023-09-18T17:04:44;100211.84;;;17.18;54.23
53889;BME280;41337;51.400;-2.342;2023-09-18T17:10:20;100228.31;;;16.90;56.06
53889;BME280;41337;51.400;-2.342;2023-09-18T17:15:22;100237.34;;;16.46;58.36
53889;BME280;41337;51.400;-2.342;2023-09-18T17:20:25;100232.66;;;16.23;60.79
53889;BME280;41337;51.400;-2.342;2023-09-18T17:25:26;100243.81;;;16.32;60.80
53889;BME280;41337;51.400;-2.342;2023-09-18T17:30:27;100238.59;;;16.19;62.37
53889;BME280;41337;51.400;-2.342;2023-09-18T17:35:50;100252.78;;;16.06;62.91
53889;BME280;41337;51.400;-2.342;2023-09-18T17:40:51;100253.44;;;16.02;63.69
53889;BME280;41337;51.400;-2.342;2023-09-18T17:45:55;100252.31;;;16.16;61.82
53889;BME280;41337;51.400;-2.342;2023-09-18T17:50:58;100258.66;;;15.83;62.85
53889;BME280;41337;51.400;-2.342;2023-09-18T17:56:04;100248.75;;;15.72;63.88
53889;BME280;41337;51.400;-2.342;2023-09-18T18:01:06;100252.94;;;15.55;65.61
53889;BME280;41337;51.400;-2.342;2023-09-18T18:06:11;100263.28;;;15.63;65.15
53889;BME280;41337;51.400;-2.342;2023-09-18T18:11:12;100253.56;;;15.57;64.88
53889;BME280;41337;51.400;-2.342;2023-09-18T18:16:13;100259.06;;;15.56;61.98
53889;BME280;41337;51.400;-2.342;2023-09-18T18:21:40;100277.56;;;15.62;64.08
53889;BME280;41337;51.400;-2.342;2023-09-18T18:32:34;100300.44;;;15.05;78.52
53889;BME280;41337;51.400;-2.342;2023-09-18T18:37:35;100293.16;;;14.61;81.61
53889;BME280;41337;51.400;-2.342;2023-09-18T18:42:37;100295.22;;;14.33;84.18
53889;BME280;41337;51.400;-2.342;2023-09-18T18:47:38;100316.56;;;14.12;87.05
53889;BME280;41337;51.400;-2.342;2023-09-18T18:52:43;100321.28;;;13.49;95.72
53889;BME280;41337;51.400;-2.342;2023-09-18T18:57:45;100316.72;;;13.23;97.11
53889;BME280;41337;51.400;-2.342;2023-09-18T19:03:15;100316.31;;;13.26;97.33
53889;BME280;41337;51.400;-2.342;2023-09-18T19:08:16;100308.19;;;13.28;98.96
53889;BME280;41337;51.400;-2.342;2023-09-18T19:13:20;100311.56;;;13.15;100.00
53889;BME280;41337;51.400;-2.342;2023-09-18T19:18:50;100328.34;;;13.01;100.00
53889;BME280;41337;51.400;-2.342;2023-09-18T19:23:54;100341.38;;;13.09;100.00
53889;BME280;41337;51.400;-2.342;2023-09-18T19:29:01;100345.69;;;13.10;100.00
53889;BME280;41337;51.400;-2.342;2023-09-18T19:40:13;100335.69;;;13.06;100.00
53889;BME280;41337;51.400;-2.342;2023-09-18T19:45:16;100337.91;;;13.02;100.00
53889;BME280;41337;51.400;-2.342;2023-09-18T19:50:18;100350.19;;;13.16;100.00
53889;BME280;41337;51.400;-2.342;2023-09-18T19:55:23;100387.03;;;13.24;100.00
53889;BME280;41337;51.400;-2.342;2023-09-18T20:00:42;100386.28;;;13.09;100.00
53889;BME280;41337;51.400;-2.342;2023-09-18T20:05:51;100397.06;;;12.80;100.00
53889;BME280;41337;51.400;-2.342;2023-09-18T20:10:52;100394.25;;;12.60;100.00
53889;BME280;41337;51.400;-2.342;2023-09-18T20:21:27;100396.88;;;12.60;100.00
53889;BME280;41337;51.400;-2.342;2023-09-18T20:26:37;100396.44;;;12.57;100.00
53889;BME280;41337;51.400;-2.342;2023-09-18T20:37:17;100404.13;;;12.52;100.00
53889;BME280;41337;51.400;-2.342;2023-09-18T20:42:19;100405.75;;;12.53;100.00
53889;BME280;41337;51.400;-2.342;2023-09-18T20:47:47;100421.03;;;12.57;100.00
53889;BME280;41337;51.400;-2.342;2023-09-18T20:52:49;100422.03;;;12.56;100.00
53889;BME280;41337;51.400;-2.342;2023-09-18T20:57:51;100424.09;;;12.61;100.00
53889;BME280;41337;51.400;-2.342;2023-09-18T21:03:18;100420.06;;;12.65;100.00
53889;BME280;41337;51.400;-2.342;2023-09-18T21:08:19;100425.13;;;12.60;100.00
53889;BME280;41337;51.400;-2.342;2023-09-18T21:13:20;100415.19;;;12.62;100.00
53889;BME280;41337;51.400;-2.342;2023-09-18T21:18:20;100429.03;;;12.64;100.00
53889;BME280;41337;51.400;-2.342;2023-09-18T21:23:22;100415.59;;;12.65;100.00
53889;BME280;41337;51.400;-2.342;2023-09-18T21:28:24;100431.97;;;12.75;100.00
53889;BME280;41337;51.400;-2.342;2023-09-18T21:33:25;100430.31;;;12.74;100.00
53889;BME280;41337;51.400;-2.342;2023-09-18T21:44:23;100439.88;;;12.75;100.00
53889;BME280;41337;51.400;-2.342;2023-09-18T21:49:27;100440.44;;;12.71;100.00
53889;BME280;41337;51.400;-2.342;2023-09-18T21:55:45;100439.81;;;12.48;100.00
53889;BME280;41337;51.400;-2.342;2023-09-18T22:00:58;100443.81;;;12.44;100.00
53889;BME280;41337;51.400;-2.342;2023-09-18T22:06:21;100443.47;;;12.47;100.00
53889;BME280;41337;51.400;-2.342;2023-09-18T22:11:51;100441.09;;;12.52;100.00
53889;BME280;41337;51.400;-2.342;2023-09-18T22:16:52;100452.81;;;12.49;100.00
53889;BME280;41337;51.400;-2.342;2023-09-18T22:22:38;100450.50;;;12.61;100.00
53889;BME280;41337;51.400;-2.342;2023-09-18T22:28:05;100450.31;;;12.62;100.00
53889;BME280;41337;51.400;-2.342;2023-09-18T22:33:50;100447.63;;;12.56;100.00
53889;BME280;41337;51.400;-2.342;2023-09-18T22:57:08;100457.81;;;12.59;100.00
53889;BME280;41337;51.400;-2.342;2023-09-18T23:14:01;100453.69;;;12.56;100.00
53889;BME280;41337;51.400;-2.342;2023-09-18T23:19:04;100459.19;;;12.55;100.00
53889;BME280;41337;51.400;-2.342;2023-09-18T23:24:28;100473.31;;;12.47;100.00
53889;BME280;41337;51.400;-2.342;2023-09-18T23:29:48;100475.97;;;12.47;100.00
53889;BME280;41337;51.400;-2.342;2023-09-18T23:35:50;100487.78;;;12.51;100.00
53889;BME280;41337;51.400;-2.342;2023-09-18T23:41:08;100486.97;;;12.51;100.00
53889;BME280;41337;51.400;-2.342;2023-09-18T23:46:16;100495.31;;;12.54;100.00
53889;BME280;41337;51.400;-2.342;2023-09-18T23:51:48;100497.78;;;12.56;100.00
53889;BME280;41337;51.400;-2.342;2023-09-18T23:57:02;100493.78;;;12.45;100.00
